sensor_id;sensor_type;location;lat;lon;timestamp;P1;durP1;ratioP1;P2;durP2;ratioP2
54460;SDS011;40371;49.414;11.010;2022-11-13T00:02:32;12.03;;;8.53;;
54460;SDS011;40371;49.414;11.010;2022-11-13T00:05:17;9.87;;;8.97;;
54460;SDS011;40371;49.414;11.010;2022-11-13T00:08:01;10.73;;;8.57;;
54460;SDS011;40371;49.414;11.010;2022-11-13T00:10:45;12.23;;;8.70;;
54460;SDS011;40371;49.414;11.010;2022-11-13T00:13:30;9.80;;;8.73;;
54460;SDS011;40371;49.414;11.010;2022-11-13T00:16:16;9.37;;;8.57;;
54460;SDS011;40371;49.414;11.010;2022-11-13T00:19:01;19.67;;;10.53;;
54460;SDS011;40371;49.414;11.010;2022-11-13T00:21:46;12.70;;;8.97;;
54460;SDS011;40371;49.414;11.010;2022-11-13T00:24:30;13.03;;;9.30;;
54460;SDS011;40371;49.414;11.010;2022-11-13T00:27:14;20.90;;;9.97;;
54460;SDS011;40371;49.414;11.010;2022-11-13T00:29:58;23.47;;;9.90;;
54460;SDS011;40371;49.414;11.010;2022-11-13T00:32:42;19.20;;;10.97;;
54460;SDS011;40371;49.414;11.010;2022-11-13T00:35:26;16.00;;;10.37;;
54460;SDS011;40371;49.414;11.010;2022-11-13T00:38:10;17.27;;;10.30;;
54460;SDS011;40371;49.414;11.010;2022-11-13T00:40:54;13.70;;;10.33;;
54460;SDS011;40371;49.414;11.010;2022-11-13T00:43:39;11.17;;;9.70;;
54460;SDS011;40371;49.414;11.010;2022-11-13T00:46:23;16.60;;;10.40;;
54460;SDS011;40371;49.414;11.010;2022-11-13T00:49:07;10.73;;;9.63;;
54460;SDS011;40371;49.414;11.010;2022-11-13T00:51:51;25.20;;;10.63;;
54460;SDS011;40371;49.414;11.010;2022-11-13T00:54:35;10.73;;;9.70;;
54460;SDS011;40371;49.414;11.010;2022-11-13T00:57:19;11.13;;;9.00;;
54460;SDS011;40371;49.414;11.010;2022-11-13T01:00:04;9.87;;;8.77;;
54460;SDS011;40371;49.414;11.010;2022-11-13T01:02:48;10.97;;;9.27;;
54460;SDS011;40371;49.414;11.010;2022-11-13T01:05:36;15.47;;;9.10;;
54460;SDS011;40371;49.414;11.010;2022-11-13T01:08:21;10.03;;;9.13;;
54460;SDS011;40371;49.414;11.010;2022-11-13T01:11:09;9.27;;;8.27;;
54460;SDS011;40371;49.414;11.010;2022-11-13T01:13:55;12.13;;;8.93;;
54460;SDS011;40371;49.414;11.010;2022-11-13T01:16:40;28.23;;;9.97;;
54460;SDS011;40371;49.414;11.010;2022-11-13T01:19:24;10.93;;;9.80;;
54460;SDS011;40371;49.414;11.010;2022-11-13T01:22:08;10.87;;;9.57;;
54460;SDS011;40371;49.414;11.010;2022-11-13T01:24:52;10.00;;;9.10;;
54460;SDS011;40371;49.414;11.010;2022-11-13T01:27:36;13.60;;;9.40;;
54460;SDS011;40371;49.414;11.010;2022-11-13T01:30:21;10.53;;;9.53;;
54460;SDS011;40371;49.414;11.010;2022-11-13T01:33:05;12.27;;;9.53;;
54460;SDS011;40371;49.414;11.010;2022-11-13T01:35:49;13.03;;;9.27;;
54460;SDS011;40371;49.414;11.010;2022-11-13T01:38:33;12.93;;;9.40;;
54460;SDS011;40371;49.414;11.010;2022-11-13T01:41:32;11.83;;;10.63;;
54460;SDS011;40371;49.414;11.010;2022-11-13T01:44:18;21.37;;;9.47;;
54460;SDS011;40371;49.414;11.010;2022-11-13T01:47:02;12.20;;;9.30;;
54460;SDS011;40371;49.414;11.010;2022-11-13T01:49:48;9.90;;;8.50;;
54460;SDS011;40371;49.414;11.010;2022-11-13T01:52:36;13.40;;;9.23;;
54460;SDS011;40371;49.414;11.010;2022-11-13T01:55:23;12.47;;;8.70;;
54460;SDS011;40371;49.414;11.010;2022-11-13T01:58:07;29.33;;;9.50;;
54460;SDS011;40371;49.414;11.010;2022-11-13T02:00:53;7.93;;;7.23;;
54460;SDS011;40371;49.414;11.010;2022-11-13T02:03:37;9.23;;;8.33;;
54460;SDS011;40371;49.414;11.010;2022-11-13T02:06:21;14.90;;;8.57;;
54460;SDS011;40371;49.414;11.010;2022-11-13T02:09:06;7.40;;;6.70;;
54460;SDS011;40371;49.414;11.010;2022-11-13T02:11:51;13.30;;;8.27;;
54460;SDS011;40371;49.414;11.010;2022-11-13T02:14:40;15.27;;;7.00;;
54460;SDS011;40371;49.414;11.010;2022-11-13T02:17:38;8.90;;;7.40;;
54460;SDS011;40371;49.414;11.010;2022-11-13T02:20:36;14.67;;;7.37;;
54460;SDS011;40371;49.414;11.010;2022-11-13T02:23:43;7.70;;;7.00;;
54460;SDS011;40371;49.414;11.010;2022-11-13T02:26:33;7.63;;;6.93;;
54460;SDS011;40371;49.414;11.010;2022-11-13T02:29:20;7.70;;;7.00;;
54460;SDS011;40371;49.414;11.010;2022-11-13T02:32:04;9.77;;;6.93;;
54460;SDS011;40371;49.414;11.010;2022-11-13T02:34:48;9.30;;;7.10;;
54460;SDS011;40371;49.414;11.010;2022-11-13T02:37:32;7.63;;;7.03;;
54460;SDS011;40371;49.414;11.010;2022-11-13T02:40:17;9.40;;;6.97;;
54460;SDS011;40371;49.414;11.010;2022-11-13T02:43:01;9.87;;;6.80;;
54460;SDS011;40371;49.414;11.010;2022-11-13T02:45:45;7.57;;;6.67;;
54460;SDS011;40371;49.414;11.010;2022-11-13T02:48:29;8.20;;;6.63;;
54460;SDS011;40371;49.414;11.010;2022-11-13T02:51:13;7.47;;;6.77;;
54460;SDS011;40371;49.414;11.010;2022-11-13T02:53:57;7.73;;;7.03;;
54460;SDS011;40371;49.414;11.010;2022-11-13T02:56:42;8.47;;;7.60;;
54460;SDS011;40371;49.414;11.010;2022-11-13T02:59:26;8.20;;;7.40;;
54460;SDS011;40371;49.414;11.010;2022-11-13T03:02:10;8.40;;;7.57;;
54460;SDS011;40371;49.414;11.010;2022-11-13T03:04:54;9.43;;;8.63;;
54460;SDS011;40371;49.414;11.010;2022-11-13T03:07:38;11.30;;;8.00;;
54460;SDS011;40371;49.414;11.010;2022-11-13T03:10:23;10.23;;;9.20;;
54460;SDS011;40371;49.414;11.010;2022-11-13T03:13:07;8.93;;;8.17;;
54460;SDS011;40371;49.414;11.010;2022-11-13T03:15:51;8.77;;;7.97;;
54460;SDS011;40371;49.414;11.010;2022-11-13T03:18:35;8.53;;;7.73;;
54460;SDS011;40371;49.414;11.010;2022-11-13T03:21:20;9.87;;;7.60;;
54460;SDS011;40371;49.414;11.010;2022-11-13T03:24:04;9.97;;;8.93;;
54460;SDS011;40371;49.414;11.010;2022-11-13T03:26:48;16.47;;;7.00;;
54460;SDS011;40371;49.414;11.010;2022-11-13T03:29:32;7.50;;;6.80;;
54460;SDS011;40371;49.414;11.010;2022-11-13T03:32:16;9.97;;;7.43;;
54460;SDS011;40371;49.414;11.010;2022-11-13T03:35:01;7.40;;;6.80;;
54460;SDS011;40371;49.414;11.010;2022-11-13T03:37:45;9.20;;;8.10;;
54460;SDS011;40371;49.414;11.010;2022-11-13T03:40:30;8.23;;;7.53;;
54460;SDS011;40371;49.414;11.010;2022-11-13T03:43:14;10.43;;;7.60;;
54460;SDS011;40371;49.414;11.010;2022-11-13T03:45:58;8.67;;;7.77;;
54460;SDS011;40371;49.414;11.010;2022-11-13T03:48:43;9.00;;;8.10;;
54460;SDS011;40371;49.414;11.010;2022-11-13T03:51:27;7.93;;;7.00;;
54460;SDS011;40371;49.414;11.010;2022-11-13T03:54:11;9.10;;;7.40;;
54460;SDS011;40371;49.414;11.010;2022-11-13T03:56:54;8.00;;;7.27;;
54460;SDS011;40371;49.414;11.010;2022-11-13T03:59:38;8.10;;;7.40;;
54460;SDS011;40371;49.414;11.010;2022-11-13T04:02:22;9.47;;;8.30;;
54460;SDS011;40371;49.414;11.010;2022-11-13T04:05:07;8.57;;;7.80;;
54460;SDS011;40371;49.414;11.010;2022-11-13T04:07:51;8.10;;;7.40;;
54460;SDS011;40371;49.414;11.010;2022-11-13T04:10:35;8.20;;;7.33;;
54460;SDS011;40371;49.414;11.010;2022-11-13T04:13:19;8.10;;;7.40;;
54460;SDS011;40371;49.414;11.010;2022-11-13T04:16:04;9.83;;;7.40;;
54460;SDS011;40371;49.414;11.010;2022-11-13T04:18:48;8.93;;;7.77;;
54460;SDS011;40371;49.414;11.010;2022-11-13T04:21:32;7.43;;;6.80;;
54460;SDS011;40371;49.414;11.010;2022-11-13T04:24:16;8.27;;;7.47;;
54460;SDS011;40371;49.414;11.010;2022-11-13T04:27:01;8.20;;;7.40;;
54460;SDS011;40371;49.414;11.010;2022-11-13T04:29:45;8.33;;;7.07;;
54460;SDS011;40371;49.414;11.010;2022-11-13T04:32:29;7.63;;;7.03;;
54460;SDS011;40371;49.414;11.010;2022-11-13T04:35:14;7.97;;;6.87;;
54460;SDS011;40371;49.414;11.010;2022-11-13T04:37:58;7.90;;;7.20;;
54460;SDS011;40371;49.414;11.010;2022-11-13T04:40:43;7.40;;;6.60;;
54460;SDS011;40371;49.414;11.010;2022-11-13T04:43:27;8.77;;;7.87;;
54460;SDS011;40371;49.414;11.010;2022-11-13T04:46:11;8.13;;;7.37;;
54460;SDS011;40371;49.414;11.010;2022-11-13T04:48:55;8.17;;;7.47;;
54460;SDS011;40371;49.414;11.010;2022-11-13T04:51:39;8.13;;;7.43;;
54460;SDS011;40371;49.414;11.010;2022-11-13T04:54:23;7.60;;;7.03;;
54460;SDS011;40371;49.414;11.010;2022-11-13T04:57:07;8.67;;;7.90;;
54460;SDS011;40371;49.414;11.010;2022-11-13T04:59:51;8.87;;;8.00;;
54460;SDS011;40371;49.414;11.010;2022-11-13T05:02:35;9.17;;;8.37;;
54460;SDS011;40371;49.414;11.010;2022-11-13T05:05:20;8.67;;;7.73;;
54460;SDS011;40371;49.414;11.010;2022-11-13T05:08:04;8.73;;;7.93;;
54460;SDS011;40371;49.414;11.010;2022-11-13T05:10:48;7.63;;;7.03;;
54460;SDS011;40371;49.414;11.010;2022-11-13T05:13:32;7.57;;;6.80;;
54460;SDS011;40371;49.414;11.010;2022-11-13T05:16:17;7.97;;;7.17;;
54460;SDS011;40371;49.414;11.010;2022-11-13T05:19:02;7.93;;;7.23;;
54460;SDS011;40371;49.414;11.010;2022-11-13T05:21:49;8.20;;;7.40;;
54460;SDS011;40371;49.414;11.010;2022-11-13T05:24:33;8.53;;;7.77;;
54460;SDS011;40371;49.414;11.010;2022-11-13T05:27:17;8.10;;;7.03;;
54460;SDS011;40371;49.414;11.010;2022-11-13T05:30:01;7.63;;;6.93;;
54460;SDS011;40371;49.414;11.010;2022-11-13T05:32:46;7.07;;;6.57;;
54460;SDS011;40371;49.414;11.010;2022-11-13T05:35:30;7.00;;;6.50;;
54460;SDS011;40371;49.414;11.010;2022-11-13T05:38:14;8.30;;;7.50;;
54460;SDS011;40371;49.414;11.010;2022-11-13T05:41:02;7.57;;;6.97;;
54460;SDS011;40371;49.414;11.010;2022-11-13T05:43:48;10.77;;;7.50;;
54460;SDS011;40371;49.414;11.010;2022-11-13T05:46:32;8.13;;;7.33;;
54460;SDS011;40371;49.414;11.010;2022-11-13T05:49:16;7.20;;;6.50;;
54460;SDS011;40371;49.414;11.010;2022-11-13T05:52:00;6.43;;;5.93;;
54460;SDS011;40371;49.414;11.010;2022-11-13T05:54:44;8.13;;;6.57;;
54460;SDS011;40371;49.414;11.010;2022-11-13T05:57:28;7.90;;;7.20;;
54460;SDS011;40371;49.414;11.010;2022-11-13T06:00:12;7.63;;;6.93;;
54460;SDS011;40371;49.414;11.010;2022-11-13T06:02:58;8.23;;;7.10;;
54460;SDS011;40371;49.414;11.010;2022-11-13T06:05:42;6.97;;;6.40;;
54460;SDS011;40371;49.414;11.010;2022-11-13T06:08:26;7.10;;;6.50;;
54460;SDS011;40371;49.414;11.010;2022-11-13T06:11:12;8.83;;;6.83;;
54460;SDS011;40371;49.414;11.010;2022-11-13T06:14:01;11.10;;;7.07;;
54460;SDS011;40371;49.414;11.010;2022-11-13T06:16:45;7.80;;;7.10;;
54460;SDS011;40371;49.414;11.010;2022-11-13T06:19:29;9.80;;;7.30;;
54460;SDS011;40371;49.414;11.010;2022-11-13T06:22:13;6.83;;;6.23;;
54460;SDS011;40371;49.414;11.010;2022-11-13T06:24:57;7.17;;;6.47;;
54460;SDS011;40371;49.414;11.010;2022-11-13T06:27:42;12.90;;;6.87;;
54460;SDS011;40371;49.414;11.010;2022-11-13T06:30:26;13.97;;;6.40;;
54460;SDS011;40371;49.414;11.010;2022-11-13T06:33:10;11.50;;;7.33;;
54460;SDS011;40371;49.414;11.010;2022-11-13T06:35:54;8.70;;;6.60;;
54460;SDS011;40371;49.414;11.010;2022-11-13T06:38:38;8.60;;;6.67;;
54460;SDS011;40371;49.414;11.010;2022-11-13T06:41:24;6.90;;;6.30;;
54460;SDS011;40371;49.414;11.010;2022-11-13T06:44:09;9.87;;;7.00;;
54460;SDS011;40371;49.414;11.010;2022-11-13T06:46:54;19.60;;;7.80;;
54460;SDS011;40371;49.414;11.010;2022-11-13T06:49:38;11.53;;;6.90;;
54460;SDS011;40371;49.414;11.010;2022-11-13T06:52:22;7.57;;;6.87;;
54460;SDS011;40371;49.414;11.010;2022-11-13T06:55:06;8.07;;;6.47;;
54460;SDS011;40371;49.414;11.010;2022-11-13T06:57:50;10.67;;;7.03;;
54460;SDS011;40371;49.414;11.010;2022-11-13T07:00:34;18.13;;;6.83;;
54460;SDS011;40371;49.414;11.010;2022-11-13T07:03:19;7.93;;;7.23;;
54460;SDS011;40371;49.414;11.010;2022-11-13T07:06:09;7.87;;;7.00;;
54460;SDS011;40371;49.414;11.010;2022-11-13T07:08:58;10.63;;;7.27;;
54460;SDS011;40371;49.414;11.010;2022-11-13T07:11:42;8.60;;;7.30;;
54460;SDS011;40371;49.414;11.010;2022-11-13T07:14:26;8.50;;;6.70;;
54460;SDS011;40371;49.414;11.010;2022-11-13T07:17:10;10.27;;;6.63;;
54460;SDS011;40371;49.414;11.010;2022-11-13T07:19:54;7.07;;;6.20;;
54460;SDS011;40371;49.414;11.010;2022-11-13T07:22:38;13.50;;;6.70;;
54460;SDS011;40371;49.414;11.010;2022-11-13T07:25:23;8.13;;;6.37;;
54460;SDS011;40371;49.414;11.010;2022-11-13T07:28:07;8.63;;;6.67;;
54460;SDS011;40371;49.414;11.010;2022-11-13T07:30:51;7.30;;;6.70;;
54460;SDS011;40371;49.414;11.010;2022-11-13T07:33:36;7.83;;;7.13;;
54460;SDS011;40371;49.414;11.010;2022-11-13T07:36:20;7.70;;;7.03;;
54460;SDS011;40371;49.414;11.010;2022-11-13T07:39:04;7.43;;;6.73;;
54460;SDS011;40371;49.414;11.010;2022-11-13T07:41:48;7.63;;;6.90;;
54460;SDS011;40371;49.414;11.010;2022-11-13T07:44:32;7.30;;;6.53;;
54460;SDS011;40371;49.414;11.010;2022-11-13T07:47:17;7.43;;;6.73;;
54460;SDS011;40371;49.414;11.010;2022-11-13T07:50:02;7.83;;;7.03;;
54460;SDS011;40371;49.414;11.010;2022-11-13T07:52:46;6.93;;;6.40;;
54460;SDS011;40371;49.414;11.010;2022-11-13T07:55:32;7.37;;;6.77;;
54460;SDS011;40371;49.414;11.010;2022-11-13T07:58:17;7.90;;;7.20;;
54460;SDS011;40371;49.414;11.010;2022-11-13T08:01:01;7.77;;;7.07;;
54460;SDS011;40371;49.414;11.010;2022-11-13T08:03:47;8.20;;;7.40;;
54460;SDS011;40371;49.414;11.010;2022-11-13T08:06:31;8.30;;;7.50;;
54460;SDS011;40371;49.414;11.010;2022-11-13T08:09:15;7.57;;;6.97;;
54460;SDS011;40371;49.414;11.010;2022-11-13T08:11:59;8.17;;;7.47;;
54460;SDS011;40371;49.414;11.010;2022-11-13T08:14:43;8.50;;;7.70;;
54460;SDS011;40371;49.414;11.010;2022-11-13T08:17:27;8.43;;;7.63;;
54460;SDS011;40371;49.414;11.010;2022-11-13T08:20:11;8.23;;;7.53;;
54460;SDS011;40371;49.414;11.010;2022-11-13T08:22:56;8.10;;;7.40;;
54460;SDS011;40371;49.414;11.010;2022-11-13T08:25:42;7.97;;;7.27;;
54460;SDS011;40371;49.414;11.010;2022-11-13T08:28:26;8.10;;;7.30;;
54460;SDS011;40371;49.414;11.010;2022-11-13T08:31:11;9.27;;;8.37;;
54460;SDS011;40371;49.414;11.010;2022-11-13T08:33:58;7.77;;;7.07;;
54460;SDS011;40371;49.414;11.010;2022-11-13T08:36:42;7.77;;;7.17;;
54460;SDS011;40371;49.414;11.010;2022-11-13T08:39:27;7.27;;;6.67;;
54460;SDS011;40371;49.414;11.010;2022-11-13T08:42:10;6.93;;;6.43;;
54460;SDS011;40371;49.414;11.010;2022-11-13T08:44:54;7.23;;;6.63;;
54460;SDS011;40371;49.414;11.010;2022-11-13T08:47:38;6.67;;;6.17;;
54460;SDS011;40371;49.414;11.010;2022-11-13T08:50:22;7.30;;;6.60;;
54460;SDS011;40371;49.414;11.010;2022-11-13T08:53:07;6.77;;;6.27;;
54460;SDS011;40371;49.414;11.010;2022-11-13T08:55:51;7.00;;;6.40;;
54460;SDS011;40371;49.414;11.010;2022-11-13T08:58:35;6.70;;;6.20;;
54460;SDS011;40371;49.414;11.010;2022-11-13T09:01:19;7.10;;;6.40;;
54460;SDS011;40371;49.414;11.010;2022-11-13T09:04:06;7.17;;;6.57;;
54460;SDS011;40371;49.414;11.010;2022-11-13T09:06:51;6.60;;;6.00;;
54460;SDS011;40371;49.414;11.010;2022-11-13T09:09:36;6.13;;;5.73;;
54460;SDS011;40371;49.414;11.010;2022-11-13T09:12:20;6.47;;;5.97;;
54460;SDS011;40371;49.414;11.010;2022-11-13T09:15:04;5.50;;;5.10;;
54460;SDS011;40371;49.414;11.010;2022-11-13T09:17:48;5.73;;;5.33;;
54460;SDS011;40371;49.414;11.010;2022-11-13T09:20:33;5.70;;;5.23;;
54460;SDS011;40371;49.414;11.010;2022-11-13T09:23:17;5.60;;;5.20;;
54460;SDS011;40371;49.414;11.010;2022-11-13T09:26:01;6.03;;;5.53;;
54460;SDS011;40371;49.414;11.010;2022-11-13T09:28:45;6.13;;;5.63;;
54460;SDS011;40371;49.414;11.010;2022-11-13T09:31:30;6.20;;;5.70;;
54460;SDS011;40371;49.414;11.010;2022-11-13T09:34:14;6.33;;;5.83;;
54460;SDS011;40371;49.414;11.010;2022-11-13T09:36:59;6.20;;;5.80;;
54460;SDS011;40371;49.414;11.010;2022-11-13T09:39:43;6.80;;;6.20;;
54460;SDS011;40371;49.414;11.010;2022-11-13T09:42:27;6.60;;;6.10;;
54460;SDS011;40371;49.414;11.010;2022-11-13T09:45:14;6.83;;;6.30;;
54460;SDS011;40371;49.414;11.010;2022-11-13T09:51:05;6.43;;;5.93;;
54460;SDS011;40371;49.414;11.010;2022-11-13T09:53:58;6.80;;;6.23;;
54460;SDS011;40371;49.414;11.010;2022-11-13T09:59:55;7.63;;;7.03;;
54460;SDS011;40371;49.414;11.010;2022-11-13T10:06:06;7.13;;;6.63;;
54460;SDS011;40371;49.414;11.010;2022-11-13T10:08:59;7.50;;;6.90;;
54460;SDS011;40371;49.414;11.010;2022-11-13T10:11:54;7.10;;;6.50;;
54460;SDS011;40371;49.414;11.010;2022-11-13T10:14:45;7.10;;;6.50;;
54460;SDS011;40371;49.414;11.010;2022-11-13T10:17:44;6.87;;;6.30;;
54460;SDS011;40371;49.414;11.010;2022-11-13T10:20:51;6.80;;;6.30;;
54460;SDS011;40371;49.414;11.010;2022-11-13T10:23:40;6.87;;;6.37;;
54460;SDS011;40371;49.414;11.010;2022-11-13T10:26:30;6.77;;;6.17;;
54460;SDS011;40371;49.414;11.010;2022-11-13T10:29:16;7.17;;;6.47;;
54460;SDS011;40371;49.414;11.010;2022-11-13T10:38:34;18.17;;;16.40;;
54460;SDS011;40371;49.414;11.010;2022-11-13T10:41:32;17.13;;;15.37;;
54460;SDS011;40371;49.414;11.010;2022-11-13T10:44:28;8.70;;;7.90;;
54460;SDS011;40371;49.414;11.010;2022-11-13T10:47:16;12.70;;;11.50;;
54460;SDS011;40371;49.414;11.010;2022-11-13T10:50:14;13.93;;;12.53;;
54460;SDS011;40371;49.414;11.010;2022-11-13T10:53:12;8.63;;;7.83;;
54460;SDS011;40371;49.414;11.010;2022-11-13T10:55:58;14.17;;;12.73;;
54460;SDS011;40371;49.414;11.010;2022-11-13T10:58:43;9.83;;;8.83;;
54460;SDS011;40371;49.414;11.010;2022-11-13T11:01:27;8.43;;;7.47;;
54460;SDS011;40371;49.414;11.010;2022-11-13T11:04:13;13.57;;;12.30;;
54460;SDS011;40371;49.414;11.010;2022-11-13T11:07:17;31.83;;;28.57;;
54460;SDS011;40371;49.414;11.010;2022-11-13T11:10:03;16.77;;;15.10;;
54460;SDS011;40371;49.414;11.010;2022-11-13T11:13:09;12.63;;;11.33;;
54460;SDS011;40371;49.414;11.010;2022-11-13T11:16:03;8.67;;;7.87;;
54460;SDS011;40371;49.414;11.010;2022-11-13T11:21:39;7.43;;;6.73;;
54460;SDS011;40371;49.414;11.010;2022-11-13T11:24:30;6.40;;;5.80;;
54460;SDS011;40371;49.414;11.010;2022-11-13T11:27:19;5.70;;;5.20;;
54460;SDS011;40371;49.414;11.010;2022-11-13T11:30:14;5.77;;;5.23;;
54460;SDS011;40371;49.414;11.010;2022-11-13T11:39:28;6.17;;;5.67;;
54460;SDS011;40371;49.414;11.010;2022-11-13T11:42:27;11.30;;;10.27;;
54460;SDS011;40371;49.414;11.010;2022-11-13T11:45:34;25.13;;;22.43;;
54460;SDS011;40371;49.414;11.010;2022-11-13T11:48:25;36.50;;;32.60;;
54460;SDS011;40371;49.414;11.010;2022-11-13T11:51:25;29.43;;;24.63;;
54460;SDS011;40371;49.414;11.010;2022-11-13T12:00:22;9.80;;;8.20;;
54460;SDS011;40371;49.414;11.010;2022-11-13T12:09:58;7.30;;;6.67;;
54460;SDS011;40371;49.414;11.010;2022-11-13T12:21:52;6.30;;;5.80;;
54460;SDS011;40371;49.414;11.010;2022-11-13T12:24:52;6.87;;;6.20;;
54460;SDS011;40371;49.414;11.010;2022-11-13T12:27:59;7.57;;;6.50;;
54460;SDS011;40371;49.414;11.010;2022-11-13T12:30:53;6.57;;;5.97;;
54460;SDS011;40371;49.414;11.010;2022-11-13T12:34:04;6.87;;;6.27;;
54460;SDS011;40371;49.414;11.010;2022-11-13T12:37:09;6.77;;;5.83;;
54460;SDS011;40371;49.414;11.010;2022-11-13T12:39:56;6.73;;;6.10;;
54460;SDS011;40371;49.414;11.010;2022-11-13T12:42:55;6.10;;;5.60;;
54460;SDS011;40371;49.414;11.010;2022-11-13T12:45:48;7.13;;;6.43;;
54460;SDS011;40371;49.414;11.010;2022-11-13T12:48:42;7.30;;;6.60;;
54460;SDS011;40371;49.414;11.010;2022-11-13T12:51:39;7.47;;;6.77;;
54460;SDS011;40371;49.414;11.010;2022-11-13T12:54:28;7.60;;;6.87;;
54460;SDS011;40371;49.414;11.010;2022-11-13T12:57:23;8.73;;;7.83;;
54460;SDS011;40371;49.414;11.010;2022-11-13T13:00:20;8.40;;;7.60;;
54460;SDS011;40371;49.414;11.010;2022-11-13T13:06:03;7.80;;;7.07;;
54460;SDS011;40371;49.414;11.010;2022-11-13T13:09:13;9.30;;;7.93;;
54460;SDS011;40371;49.414;11.010;2022-11-13T13:12:35;8.63;;;7.83;;
54460;SDS011;40371;49.414;11.010;2022-11-13T13:15:44;11.07;;;6.73;;
54460;SDS011;40371;49.414;11.010;2022-11-13T13:18:39;7.80;;;6.43;;
54460;SDS011;40371;49.414;11.010;2022-11-13T13:21:23;6.70;;;6.07;;
54460;SDS011;40371;49.414;11.010;2022-11-13T13:24:09;7.23;;;5.90;;
54460;SDS011;40371;49.414;11.010;2022-11-13T13:27:20;4.77;;;4.37;;
54460;SDS011;40371;49.414;11.010;2022-11-13T13:30:22;4.43;;;3.70;;
54460;SDS011;40371;49.414;11.010;2022-11-13T13:36:31;4.43;;;3.60;;
54460;SDS011;40371;49.414;11.010;2022-11-13T13:48:56;4.20;;;3.53;;
54460;SDS011;40371;49.414;11.010;2022-11-13T13:51:48;4.23;;;3.83;;
54460;SDS011;40371;49.414;11.010;2022-11-13T13:54:35;3.03;;;2.80;;
54460;SDS011;40371;49.414;11.010;2022-11-13T13:57:22;2.83;;;2.63;;
54460;SDS011;40371;49.414;11.010;2022-11-13T14:00:10;3.63;;;2.40;;
54460;SDS011;40371;49.414;11.010;2022-11-13T14:02:56;2.17;;;2.07;;
54460;SDS011;40371;49.414;11.010;2022-11-13T14:05:40;2.00;;;1.90;;
54460;SDS011;40371;49.414;11.010;2022-11-13T14:08:24;2.30;;;2.10;;
54460;SDS011;40371;49.414;11.010;2022-11-13T14:11:23;2.57;;;2.07;;
54460;SDS011;40371;49.414;11.010;2022-11-13T14:14:19;2.37;;;2.17;;
54460;SDS011;40371;49.414;11.010;2022-11-13T14:17:04;2.07;;;1.90;;
54460;SDS011;40371;49.414;11.010;2022-11-13T14:19:53;2.47;;;2.27;;
54460;SDS011;40371;49.414;11.010;2022-11-13T14:22:38;2.30;;;2.20;;
54460;SDS011;40371;49.414;11.010;2022-11-13T14:25:26;3.03;;;2.67;;
54460;SDS011;40371;49.414;11.010;2022-11-13T14:28:15;2.60;;;2.20;;
54460;SDS011;40371;49.414;11.010;2022-11-13T14:31:09;2.73;;;2.50;;
54460;SDS011;40371;49.414;11.010;2022-11-13T14:33:55;3.07;;;2.27;;
54460;SDS011;40371;49.414;11.010;2022-11-13T14:36:42;2.37;;;2.23;;
54460;SDS011;40371;49.414;11.010;2022-11-13T14:39:27;2.67;;;2.37;;
54460;SDS011;40371;49.414;11.010;2022-11-13T14:42:16;2.87;;;2.63;;
54460;SDS011;40371;49.414;11.010;2022-11-13T14:45:17;2.80;;;2.60;;
54460;SDS011;40371;49.414;11.010;2022-11-13T14:48:17;2.47;;;2.27;;
54460;SDS011;40371;49.414;11.010;2022-11-13T14:51:23;5.20;;;3.30;;
54460;SDS011;40371;49.414;11.010;2022-11-13T14:54:26;3.90;;;3.50;;
54460;SDS011;40371;49.414;11.010;2022-11-13T14:57:12;4.27;;;3.63;;
54460;SDS011;40371;49.414;11.010;2022-11-13T15:00:17;5.03;;;4.63;;
54460;SDS011;40371;49.414;11.010;2022-11-13T15:03:08;4.67;;;4.17;;
54460;SDS011;40371;49.414;11.010;2022-11-13T15:05:52;5.23;;;4.37;;
54460;SDS011;40371;49.414;11.010;2022-11-13T15:08:36;4.70;;;4.03;;
54460;SDS011;40371;49.414;11.010;2022-11-13T15:11:22;5.23;;;4.53;;
54460;SDS011;40371;49.414;11.010;2022-11-13T15:14:09;5.47;;;4.20;;
54460;SDS011;40371;49.414;11.010;2022-11-13T15:16:54;5.77;;;4.07;;
54460;SDS011;40371;49.414;11.010;2022-11-13T15:19:38;5.80;;;5.13;;
54460;SDS011;40371;49.414;11.010;2022-11-13T15:22:23;5.80;;;5.03;;
54460;SDS011;40371;49.414;11.010;2022-11-13T15:25:11;6.37;;;4.90;;
54460;SDS011;40371;49.414;11.010;2022-11-13T15:27:57;6.17;;;5.57;;
54460;SDS011;40371;49.414;11.010;2022-11-13T15:30:41;9.63;;;6.63;;
54460;SDS011;40371;49.414;11.010;2022-11-13T15:33:25;8.63;;;6.47;;
54460;SDS011;40371;49.414;11.010;2022-11-13T15:36:10;6.50;;;5.90;;
54460;SDS011;40371;49.414;11.010;2022-11-13T15:38:54;7.23;;;6.07;;
54460;SDS011;40371;49.414;11.010;2022-11-13T15:41:38;6.40;;;5.23;;
54460;SDS011;40371;49.414;11.010;2022-11-13T15:44:23;9.73;;;6.50;;
54460;SDS011;40371;49.414;11.010;2022-11-13T15:47:14;6.23;;;5.63;;
54460;SDS011;40371;49.414;11.010;2022-11-13T15:50:11;7.80;;;5.60;;
54460;SDS011;40371;49.414;11.010;2022-11-13T15:52:56;6.67;;;5.97;;
54460;SDS011;40371;49.414;11.010;2022-11-13T15:55:41;5.77;;;4.80;;
54460;SDS011;40371;49.414;11.010;2022-11-13T15:58:25;5.97;;;5.43;;
54460;SDS011;40371;49.414;11.010;2022-11-13T16:01:11;5.80;;;5.13;;
54460;SDS011;40371;49.414;11.010;2022-11-13T16:03:57;5.60;;;5.03;;
54460;SDS011;40371;49.414;11.010;2022-11-13T16:06:45;5.83;;;4.77;;
54460;SDS011;40371;49.414;11.010;2022-11-13T16:09:29;6.00;;;5.20;;
54460;SDS011;40371;49.414;11.010;2022-11-13T16:12:13;6.03;;;5.43;;
54460;SDS011;40371;49.414;11.010;2022-11-13T16:14:57;5.90;;;5.30;;
54460;SDS011;40371;49.414;11.010;2022-11-13T16:17:43;6.80;;;5.40;;
54460;SDS011;40371;49.414;11.010;2022-11-13T16:20:34;7.13;;;5.70;;
54460;SDS011;40371;49.414;11.010;2022-11-13T16:23:18;7.33;;;5.40;;
54460;SDS011;40371;49.414;11.010;2022-11-13T16:26:02;8.67;;;5.93;;
54460;SDS011;40371;49.414;11.010;2022-11-13T16:28:49;7.93;;;6.03;;
54460;SDS011;40371;49.414;11.010;2022-11-13T16:31:35;6.40;;;5.80;;
54460;SDS011;40371;49.414;11.010;2022-11-13T16:34:19;5.97;;;5.37;;
54460;SDS011;40371;49.414;11.010;2022-11-13T16:37:08;6.10;;;5.50;;
54460;SDS011;40371;49.414;11.010;2022-11-13T16:40:01;9.03;;;6.77;;
54460;SDS011;40371;49.414;11.010;2022-11-13T16:42:46;6.63;;;5.93;;
54460;SDS011;40371;49.414;11.010;2022-11-13T16:45:30;7.37;;;6.07;;
54460;SDS011;40371;49.414;11.010;2022-11-13T16:48:15;6.23;;;5.63;;
54460;SDS011;40371;49.414;11.010;2022-11-13T16:51:03;7.30;;;6.27;;
54460;SDS011;40371;49.414;11.010;2022-11-13T16:53:47;6.83;;;6.07;;
54460;SDS011;40371;49.414;11.010;2022-11-13T16:56:31;18.13;;;14.07;;
54460;SDS011;40371;49.414;11.010;2022-11-13T16:59:15;8.00;;;7.17;;
54460;SDS011;40371;49.414;11.010;2022-11-13T17:02:00;9.90;;;7.80;;
54460;SDS011;40371;49.414;11.010;2022-11-13T17:04:45;7.37;;;6.63;;
54460;SDS011;40371;49.414;11.010;2022-11-13T17:07:29;8.77;;;7.87;;
54460;SDS011;40371;49.414;11.010;2022-11-13T17:10:14;7.57;;;6.77;;
54460;SDS011;40371;49.414;11.010;2022-11-13T17:13:00;8.37;;;6.80;;
54460;SDS011;40371;49.414;11.010;2022-11-13T17:15:44;8.50;;;7.33;;
54460;SDS011;40371;49.414;11.010;2022-11-13T17:18:28;9.47;;;8.07;;
54460;SDS011;40371;49.414;11.010;2022-11-13T17:21:13;13.33;;;11.57;;
54460;SDS011;40371;49.414;11.010;2022-11-13T17:23:58;14.97;;;12.00;;
54460;SDS011;40371;49.414;11.010;2022-11-13T17:26:43;14.77;;;11.70;;
54460;SDS011;40371;49.414;11.010;2022-11-13T17:29:28;12.03;;;10.30;;
54460;SDS011;40371;49.414;11.010;2022-11-13T17:32:12;10.40;;;9.20;;